createdAt,value
2022-08-14T00:02:20.405Z,4.75
2022-08-14T00:04:47.072Z,4.75
2022-08-14T00:07:14.673Z,4.13
2022-08-14T00:10:02.238Z,4.10
2022-08-14T00:12:33.518Z,4.38
2022-08-14T00:15:14.992Z,4.63
2022-08-14T00:17:47.879Z,4.20
2022-08-14T00:20:30.903Z,4.75
2022-08-14T00:23:16.657Z,4.18
2022-08-14T00:25:53.867Z,4.22
2022-08-14T00:28:32.443Z,4.63
2022-08-14T00:31:00.210Z,4.40
2022-08-14T00:33:49.243Z,4.60
2022-08-14T00:36:35.753Z,4.70
2022-08-14T00:39:03.793Z,4.15
2022-08-14T00:41:33.740Z,4.50
2022-08-14T00:44:00.807Z,4.80
2022-08-14T00:46:32.176Z,4.45
2022-08-14T00:48:59.685Z,4.55
2022-08-14T00:51:36.807Z,4.03
2022-08-14T00:54:16.654Z,4.43
2022-08-14T00:56:50.064Z,4.28
2022-08-14T00:59:16.628Z,4.70
2022-08-14T01:01:44.301Z,5.10
2022-08-14T01:04:51.737Z,4.43
2022-08-14T01:07:00.753Z,4.53
2022-08-14T01:09:31.898Z,3.90
2022-08-14T01:12:03.220Z,4.05
2022-08-14T01:14:32.602Z,4.40
2022-08-14T01:17:02.592Z,4.32
2022-08-14T01:19:48.097Z,4.53
2022-08-14T01:22:18.952Z,4.65
2022-08-14T01:24:47.004Z,4.40
2022-08-14T01:27:19.627Z,4.60
2022-08-14T01:30:00.620Z,5.15
2022-08-14T01:32:37.326Z,4.95
2022-08-14T01:35:20.411Z,5.07
2022-08-14T01:37:57.893Z,5.53
2022-08-14T01:40:36.619Z,4.90
2022-08-14T01:43:14.520Z,5.10
2022-08-14T01:45:42.721Z,4.60
2022-08-14T01:48:16.114Z,4.85
2022-08-14T01:50:47.535Z,5.30
2022-08-14T01:53:17.784Z,5.18
2022-08-14T01:55:44.568Z,5.35
2022-08-14T01:58:20.107Z,5.38
2022-08-14T02:00:55.750Z,5.22
2022-08-14T02:03:31.969Z,5.35
2022-08-14T02:06:03.898Z,5.50
2022-08-14T02:08:53.115Z,5.97
2022-08-14T02:11:22.787Z,5.88
2022-08-14T02:14:07.618Z,4.72
2022-08-14T02:16:54.206Z,5.50
2022-08-14T02:19:24.611Z,5.20
2022-08-14T02:21:54.624Z,5.75
2022-08-14T02:24:39.088Z,6.68
2022-08-14T02:28:23.173Z,5.75
2022-08-14T02:30:00.935Z,5.75
2022-08-14T02:32:37.202Z,5.90
2022-08-14T02:37:49.734Z,5.60
2022-08-14T02:40:18.996Z,5.30
2022-08-14T02:42:55.121Z,6.10
2022-08-14T02:45:38.633Z,6.90
2022-08-14T02:49:01.113Z,6.30
2022-08-14T02:51:08.995Z,6.03
2022-08-14T02:53:45.486Z,7.35
2022-08-14T02:56:29.577Z,6.70
2022-08-14T02:59:01.826Z,6.15
2022-08-14T03:01:43.003Z,6.35
2022-08-14T03:04:13.107Z,6.50
2022-08-14T03:06:58.169Z,6.35
2022-08-14T03:09:42.099Z,6.85
2022-08-14T03:12:17.836Z,6.75
2022-08-14T03:14:58.522Z,7.40
2022-08-14T03:17:25.034Z,7.38
2022-08-14T03:19:52.439Z,7.10
2022-08-14T03:22:19.010Z,7.18
2022-08-14T03:24:45.810Z,7.63
2022-08-14T03:27:13.997Z,7.80
2022-08-14T03:29:40.990Z,8.00
2022-08-14T03:32:08.069Z,7.72
2022-08-14T03:34:47.795Z,6.85
2022-08-14T03:37:51.539Z,7.57
2022-08-14T03:40:06.740Z,7.20
2022-08-14T03:42:39.415Z,8.40
2022-08-14T03:45:19.483Z,7.60
2022-08-14T03:47:58.347Z,7.78
2022-08-14T03:50:31.138Z,7.22
2022-08-14T03:53:02.010Z,7.45
2022-08-14T03:55:30.361Z,7.80
2022-08-14T03:57:57.436Z,7.43
2022-08-14T04:00:44.374Z,7.70
2022-08-14T04:03:23.549Z,7.85
2022-08-14T04:05:51.805Z,6.70
2022-08-14T04:08:29.354Z,7.30
2022-08-14T04:10:59.409Z,7.35
2022-08-14T04:13:37.469Z,7.22
2022-08-14T04:16:12.509Z,6.93
2022-08-14T04:18:45.799Z,7.95
2022-08-14T04:21:14.873Z,7.38
2022-08-14T04:23:49.258Z,7.70
2022-08-14T04:26:27.323Z,7.45
2022-08-14T04:29:14.947Z,7.93
2022-08-14T04:33:02.076Z,7.50
2022-08-14T04:34:31.086Z,7.60
2022-08-14T04:37:21.945Z,8.57
2022-08-14T04:40:08.768Z,7.95
2022-08-14T04:42:54.914Z,8.15
2022-08-14T04:48:39.621Z,7.45
2022-08-14T04:51:03.490Z,8.02
2022-08-14T04:53:40.907Z,8.15
2022-08-14T04:56:31.200Z,8.80
2022-08-14T04:59:09.680Z,9.35
2022-08-14T05:01:44.768Z,9.25
2022-08-14T05:04:16.042Z,9.38
2022-08-14T05:06:43.113Z,9.55
2022-08-14T05:09:13.899Z,9.80
2022-08-14T05:11:42.061Z,9.20
2022-08-14T05:14:42.738Z,8.82
2022-08-14T05:17:01.584Z,8.82
2022-08-14T05:19:29.901Z,9.40
2022-08-14T05:22:16.110Z,9.48
2022-08-14T05:24:50.406Z,9.80
2022-08-14T05:27:22.664Z,9.60
2022-08-14T05:29:51.857Z,9.90
2022-08-14T05:32:18.452Z,10.05
2022-08-14T05:34:49.830Z,9.60
2022-08-14T05:37:16.339Z,9.25
2022-08-14T05:39:43.746Z,10.25
2022-08-14T05:42:22.071Z,10.13
2022-08-14T05:44:55.831Z,10.15
2022-08-14T05:47:23.820Z,9.57
2022-08-14T05:49:51.410Z,9.57
2022-08-14T05:52:19.084Z,10.27
2022-08-14T05:55:11.287Z,9.85
2022-08-14T05:57:55.032Z,10.27
2022-08-14T06:00:34.778Z,11.10
2022-08-14T06:03:16.589Z,10.20
2022-08-14T06:05:45.089Z,10.70
2022-08-14T06:08:35.997Z,9.88
2022-08-14T06:11:08.481Z,10.18
2022-08-14T06:13:45.318Z,9.85
2022-08-14T06:16:17.772Z,9.57
2022-08-14T06:18:52.427Z,9.82
2022-08-14T06:21:23.328Z,10.55
2022-08-14T06:23:50.375Z,8.80
2022-08-14T06:26:20.619Z,9.77
2022-08-14T06:28:52.249Z,9.27
2022-08-14T06:31:21.394Z,9.30
2022-08-14T06:35:04.194Z,9.13
2022-08-14T06:36:37.957Z,8.65
2022-08-14T06:39:08.123Z,9.02
2022-08-14T06:41:56.935Z,8.60
2022-08-14T06:44:32.833Z,8.77
2022-08-14T06:47:03.330Z,8.85
2022-08-14T06:49:31.061Z,8.45
2022-08-14T06:52:10.709Z,8.25
2022-08-14T06:54:43.117Z,8.75
2022-08-14T06:57:09.610Z,7.45
2022-08-14T06:59:36.285Z,8.10
2022-08-14T07:02:21.795Z,8.25
2022-08-14T07:05:12.243Z,7.70
2022-08-14T07:07:48.552Z,8.25
2022-08-14T07:10:17.271Z,8.43
2022-08-14T07:13:01.177Z,8.13
2022-08-14T07:15:33.970Z,7.80
2022-08-14T07:18:08.918Z,7.63
2022-08-14T07:20:36.118Z,7.78
2022-08-14T07:23:10.813Z,7.88
2022-08-14T07:25:42.188Z,8.13
2022-08-14T07:28:13.031Z,7.35
2022-08-14T07:30:50.927Z,8.43
2022-08-14T07:33:20.731Z,7.53
2022-08-14T07:35:58.642Z,6.93
2022-08-14T07:38:32.138Z,7.25
2022-08-14T07:41:11.910Z,6.75
2022-08-14T07:43:47.510Z,6.63
2022-08-14T07:46:29.227Z,6.07
2022-08-14T07:48:56.885Z,6.60
2022-08-14T07:51:23.697Z,6.05
2022-08-14T07:53:56.940Z,6.18
2022-08-14T07:56:43.855Z,6.32
2022-08-14T07:59:11.470Z,6.68
2022-08-14T08:01:51.098Z,6.45
2022-08-14T08:04:25.316Z,6.07
2022-08-14T08:06:54.851Z,6.60
2022-08-14T08:09:32.210Z,6.50
2022-08-14T08:12:05.107Z,6.32
2022-08-14T08:14:55.550Z,7.30
2022-08-14T08:17:24.297Z,6.90
2022-08-14T08:19:51.650Z,6.45
2022-08-14T08:22:21.277Z,6.53
2022-08-14T08:24:50.571Z,6.70
2022-08-14T08:27:19.779Z,6.22
2022-08-14T08:29:50.714Z,6.63
2022-08-14T08:32:18.151Z,6.35
2022-08-14T08:34:46.478Z,5.85
2022-08-14T08:37:16.834Z,6.55
2022-08-14T08:40:03.386Z,5.75
2022-08-14T08:42:41.217Z,6.45
2022-08-14T08:45:14.569Z,5.25
2022-08-14T08:47:43.817Z,5.68
2022-08-14T08:53:07.834Z,5.57
2022-08-14T08:55:36.939Z,5.65
2022-08-14T08:58:12.722Z,6.03
2022-08-14T09:00:48.792Z,6.07
2022-08-14T09:03:21.630Z,5.22
2022-08-14T09:05:56.183Z,5.55
2022-08-14T09:11:19.565Z,5.80
2022-08-14T09:13:54.042Z,5.95
2022-08-14T09:16:23.590Z,5.70
2022-08-14T09:18:53.451Z,5.40
2022-08-14T09:21:20.919Z,5.60
2022-08-14T09:24:28.588Z,5.10
2022-08-14T09:26:49.184Z,5.47
2022-08-14T09:29:17.941Z,5.47
2022-08-14T09:31:52.889Z,5.10
2022-08-14T09:34:59.063Z,5.03
2022-08-14T09:37:35.031Z,5.47
2022-08-14T09:40:29.237Z,5.70
2022-08-14T09:43:14.072Z,5.00
2022-08-14T09:45:52.858Z,5.38
2022-08-14T09:48:27.930Z,5.90
2022-08-14T09:54:18.643Z,5.57
2022-08-14T09:56:31.001Z,5.00
2022-08-14T09:59:10.664Z,4.75
2022-08-14T10:01:37.537Z,5.40
2022-08-14T10:04:34.515Z,5.15
2022-08-14T10:07:05.933Z,4.90
2022-08-14T10:09:35.050Z,4.60
2022-08-14T10:12:04.816Z,5.07
2022-08-14T10:14:36.652Z,5.32
2022-08-14T10:17:06.389Z,5.28
2022-08-14T10:19:36.411Z,5.03
2022-08-14T10:23:14.422Z,4.88
2022-08-14T10:24:57.449Z,5.18
2022-08-14T10:27:27.191Z,4.55
2022-08-14T10:30:04.465Z,4.90
2022-08-14T10:32:41.813Z,4.60
2022-08-14T10:35:16.943Z,20.42
2022-08-14T10:37:48.018Z,4.85
2022-08-14T10:40:37.907Z,4.97
2022-08-14T10:43:26.026Z,4.35
2022-08-14T10:46:03.308Z,5.80
2022-08-14T10:48:36.981Z,4.28
2022-08-14T10:51:08.676Z,4.63
2022-08-14T10:53:40.221Z,4.30
2022-08-14T10:56:21.848Z,4.40
2022-08-14T10:59:08.306Z,4.47
2022-08-14T11:01:40.799Z,3.95
2022-08-14T11:04:26.127Z,4.50
2022-08-14T11:06:56.422Z,4.22
2022-08-14T11:09:23.354Z,3.97
2022-08-14T11:12:34.777Z,4.05
2022-08-14T11:15:02.539Z,3.90
2022-08-14T11:17:32.666Z,4.45
2022-08-14T11:20:01.390Z,4.57
2022-08-14T11:23:03.081Z,4.50
2022-08-14T11:25:20.462Z,4.55
2022-08-14T11:27:49.133Z,4.35
2022-08-14T11:30:50.674Z,4.65
2022-08-14T11:33:13.686Z,4.35
2022-08-14T11:35:48.481Z,4.28
2022-08-14T11:38:17.955Z,4.03
2022-08-14T11:40:47.533Z,4.35
2022-08-14T11:43:18.678Z,4.05
2022-08-14T11:45:56.281Z,3.97
2022-08-14T11:48:59.049Z,4.13
2022-08-14T11:51:17.787Z,3.85
2022-08-14T11:54:00.942Z,3.83
2022-08-14T11:56:37.847Z,2.95
2022-08-14T11:59:10.288Z,3.45
2022-08-14T12:01:41.347Z,3.75
2022-08-14T12:04:21.659Z,4.00
2022-08-14T12:07:01.207Z,4.45
2022-08-14T12:09:32.993Z,3.85
2022-08-14T12:12:01.184Z,3.97
2022-08-14T12:14:30.532Z,2.97
2022-08-14T12:17:09.564Z,2.95
2022-08-14T12:19:51.339Z,3.40
2022-08-14T12:22:34.303Z,3.30
2022-08-14T12:25:10.004Z,3.13
2022-08-14T12:27:53.062Z,3.20
2022-08-14T12:30:39.598Z,3.38
2022-08-14T12:33:30.475Z,3.35
2022-08-14T12:36:04.161Z,3.40
2022-08-14T12:38:43.953Z,3.33
2022-08-14T12:41:20.972Z,3.58
2022-08-14T12:44:04.701Z,3.50
2022-08-14T12:46:43.404Z,2.97
2022-08-14T12:49:17.098Z,3.67
2022-08-14T12:51:59.350Z,3.70
2022-08-14T12:54:32.240Z,3.60
2022-08-14T12:57:08.432Z,3.50
2022-08-14T12:59:37.043Z,3.53
2022-08-14T13:02:25.264Z,3.50
2022-08-14T13:04:56.776Z,3.53
2022-08-14T13:07:27.078Z,3.15
2022-08-14T13:09:59.762Z,3.45
2022-08-14T13:12:32.243Z,3.33
2022-08-14T13:15:09.601Z,3.53
2022-08-14T13:17:41.278Z,3.60
2022-08-14T13:20:10.718Z,3.05
2022-08-14T13:22:51.760Z,3.00
2022-08-14T13:25:22.275Z,3.40
2022-08-14T13:27:54.527Z,3.30
2022-08-14T13:30:24.853Z,3.38
2022-08-14T13:32:53.868Z,3.58
2022-08-14T13:35:22.635Z,3.40
2022-08-14T13:37:52.163Z,4.00
2022-08-14T13:40:26.520Z,3.50
2022-08-14T13:43:02.824Z,3.45
2022-08-14T13:45:59.754Z,3.53
2022-08-14T13:48:30.662Z,3.53
2022-08-14T13:51:02.836Z,3.05
2022-08-14T13:53:33.751Z,3.13
2022-08-14T13:56:01.460Z,3.10
2022-08-14T13:58:35.546Z,3.30
2022-08-14T14:01:04.283Z,3.42
2022-08-14T14:03:35.245Z,3.55
2022-08-14T14:06:02.819Z,3.00
2022-08-14T14:08:46.905Z,3.20
2022-08-14T14:11:16.656Z,3.17
2022-08-14T14:13:48.747Z,3.00
2022-08-14T14:16:26.090Z,3.10
2022-08-14T14:19:06.070Z,2.85
2022-08-14T14:21:35.199Z,3.35
2022-08-14T14:24:04.852Z,3.05
2022-08-14T14:26:33.172Z,2.90
2022-08-14T14:29:06.319Z,3.50
2022-08-14T14:31:36.486Z,3.08
2022-08-14T14:34:29.601Z,3.17
2022-08-14T14:37:02.657Z,3.33
2022-08-14T14:39:30.546Z,3.38
2022-08-14T14:42:04.245Z,3.22
2022-08-14T14:44:40.257Z,3.22
2022-08-14T14:47:12.107Z,3.47
2022-08-14T14:49:51.137Z,2.70
2022-08-14T14:52:27.561Z,3.38
2022-08-14T14:54:58.444Z,3.30
2022-08-14T14:57:35.474Z,3.17
2022-08-14T15:00:06.678Z,3.20
2022-08-14T15:02:42.652Z,3.25
2022-08-14T15:05:10.087Z,3.45
2022-08-14T15:07:37.654Z,3.30
2022-08-14T15:10:06.943Z,3.63
2022-08-14T15:12:55.895Z,3.10
2022-08-14T15:15:33.374Z,3.30
2022-08-14T15:18:36.232Z,3.80
2022-08-14T15:21:01.329Z,2.97
2022-08-14T15:23:44.624Z,3.55
2022-08-14T15:26:24.263Z,3.50
2022-08-14T15:29:03.052Z,3.33
2022-08-14T15:31:32.609Z,3.45
2022-08-14T15:34:46.050Z,3.40
2022-08-14T15:37:04.741Z,3.60
2022-08-14T15:39:34.103Z,3.28
2022-08-14T15:42:09.341Z,3.63
2022-08-14T15:44:44.801Z,3.70
2022-08-14T15:47:28.050Z,4.60
2022-08-14T15:49:56.300Z,4.40
2022-08-14T15:52:33.052Z,4.10
2022-08-14T15:55:14.767Z,3.80
2022-08-14T15:58:02.004Z,3.85
2022-08-14T16:00:52.452Z,4.30
2022-08-14T16:03:27.206Z,4.13
2022-08-14T16:06:01.220Z,3.58
2022-08-14T16:08:29.275Z,4.07
2022-08-14T16:10:59.078Z,3.72
2022-08-14T16:13:44.641Z,4.00
2022-08-14T16:16:50.427Z,4.47
2022-08-14T16:19:09.782Z,3.80
2022-08-14T16:21:39.399Z,4.05
2022-08-14T16:24:06.595Z,3.80
2022-08-14T16:26:33.786Z,3.80
2022-08-14T16:29:09.134Z,3.50
2022-08-14T16:31:36.672Z,3.70
2022-08-14T16:34:44.291Z,3.97
2022-08-14T16:36:53.702Z,3.92
2022-08-14T16:39:22.838Z,4.13
2022-08-14T16:41:58.761Z,3.90
2022-08-14T16:44:36.374Z,4.20
2022-08-14T16:47:04.226Z,4.63
2022-08-14T16:49:50.578Z,4.15
2022-08-14T16:52:26.391Z,4.47
2022-08-14T16:55:09.370Z,4.38
2022-08-14T16:57:54.649Z,4.50
2022-08-14T17:00:29.398Z,4.90
2022-08-14T17:03:03.087Z,4.82
2022-08-14T17:05:30.935Z,4.35
2022-08-14T17:08:32.400Z,4.45
2022-08-14T17:11:10.667Z,4.10
2022-08-14T17:13:57.696Z,4.30
2022-08-14T17:16:37.568Z,3.88
2022-08-14T17:19:17.579Z,4.15
2022-08-14T17:21:46.804Z,4.10
2022-08-14T17:27:04.224Z,4.40
2022-08-14T17:29:44.791Z,4.43
2022-08-14T17:32:29.819Z,4.32
2022-08-14T17:35:16.820Z,4.32
2022-08-14T17:37:46.277Z,4.38
2022-08-14T17:40:19.849Z,4.47
2022-08-14T17:42:51.311Z,5.37
2022-08-14T17:45:27.026Z,4.88
2022-08-14T17:47:59.525Z,4.78
2022-08-14T17:51:00.848Z,4.53
2022-08-14T17:53:30.572Z,4.70
2022-08-14T17:56:02.229Z,4.70
2022-08-14T17:58:38.526Z,4.93
2022-08-14T18:01:13.300Z,4.30
2022-08-14T18:03:45.804Z,4.80
2022-08-14T18:06:39.722Z,4.90
2022-08-14T18:09:25.405Z,4.57
2022-08-14T18:11:58.122Z,4.70
2022-08-14T18:14:32.360Z,4.82
2022-08-14T18:17:01.566Z,4.38
2022-08-14T18:19:31.535Z,4.50
2022-08-14T18:22:05.674Z,5.05
2022-08-14T18:24:50.627Z,4.80
2022-08-14T18:27:32.681Z,5.18
2022-08-14T18:30:33.058Z,4.72
2022-08-14T18:32:55.232Z,4.65
2022-08-14T18:35:59.066Z,4.75
2022-08-14T18:38:45.460Z,5.15
2022-08-14T18:41:36.424Z,5.07
2022-08-14T18:44:10.716Z,4.90
2022-08-14T18:47:09.963Z,5.38
2022-08-14T18:49:57.856Z,5.72
2022-08-14T18:52:34.431Z,5.20
2022-08-14T18:55:20.873Z,5.32
2022-08-14T18:58:24.527Z,5.15
2022-08-14T19:00:58.740Z,5.22
2022-08-14T19:03:36.326Z,5.65
2022-08-14T19:06:08.158Z,6.30
2022-08-14T19:08:49.658Z,6.05
2022-08-14T19:11:32.527Z,6.60
2022-08-14T19:14:04.977Z,5.50
2022-08-14T19:16:37.094Z,5.78
2022-08-14T19:19:08.675Z,5.53
2022-08-14T19:21:43.187Z,6.53
2022-08-14T19:24:43.721Z,6.03
2022-08-14T19:27:19.275Z,5.78
2022-08-14T19:29:47.984Z,6.35
2022-08-14T19:32:50.951Z,5.82
2022-08-14T19:35:48.819Z,5.72
2022-08-14T19:38:47.816Z,5.97
2022-08-14T19:41:16.339Z,6.45
2022-08-14T19:43:55.909Z,6.40
2022-08-14T19:46:37.975Z,6.03
2022-08-14T19:50:08.949Z,5.90
2022-08-14T19:52:31.626Z,6.20
2022-08-14T19:55:20.107Z,6.63
2022-08-14T19:57:58.350Z,6.32
2022-08-14T20:00:28.983Z,5.82
2022-08-14T20:03:18.790Z,6.05
2022-08-14T20:06:00.596Z,6.07
2022-08-14T20:11:00.152Z,6.45
2022-08-14T20:11:58.523Z,7.20
2022-08-14T20:14:23.659Z,7.03
2022-08-14T20:17:03.231Z,7.70
2022-08-14T20:19:38.118Z,7.40
2022-08-14T20:22:36.201Z,6.47
2022-08-14T20:25:13.876Z,7.35
2022-08-14T20:27:44.306Z,8.10
2022-08-14T20:30:34.834Z,7.10
2022-08-14T20:33:11.534Z,8.48
2022-08-14T20:35:47.634Z,8.80
2022-08-14T20:38:29.464Z,8.45
2022-08-14T20:41:06.786Z,8.38
2022-08-14T20:43:57.556Z,7.50
2022-08-14T20:46:31.606Z,7.35
2022-08-14T20:49:02.303Z,7.03
2022-08-14T20:51:47.698Z,7.18
2022-08-14T20:54:34.531Z,6.75
2022-08-14T20:57:11.988Z,7.90
2022-08-14T20:59:52.935Z,7.45
2022-08-14T21:02:30.353Z,7.82
2022-08-14T21:05:16.879Z,8.20
2022-08-14T21:07:51.155Z,8.35
2022-08-14T21:10:36.161Z,7.85
2022-08-14T21:15:57.893Z,9.23
2022-08-14T21:18:47.778Z,8.27
2022-08-14T21:21:21.206Z,8.57
2022-08-14T21:23:54.581Z,7.82
2022-08-14T21:26:51.025Z,8.63
2022-08-14T21:29:14.299Z,8.57
2022-08-14T21:31:42.689Z,9.02
2022-08-14T21:34:30.960Z,8.65
2022-08-14T21:37:06.401Z,8.25
2022-08-14T21:39:35.874Z,8.07
2022-08-14T21:42:02.445Z,8.88
2022-08-14T21:44:43.274Z,8.75
2022-08-14T21:47:11.991Z,9.52
2022-08-14T21:49:39.994Z,8.73
2022-08-14T21:52:49.223Z,9.32
2022-08-14T21:55:00.267Z,10.13
2022-08-14T21:57:56.499Z,8.68
2022-08-14T22:00:30.136Z,9.02
2022-08-14T22:03:10.718Z,8.85
2022-08-14T22:05:41.216Z,8.75
2022-08-14T22:08:12.005Z,9.50
2022-08-14T22:10:42.497Z,9.32
2022-08-14T22:13:17.537Z,10.02
2022-08-14T22:15:49.379Z,9.23
2022-08-14T22:18:20.354Z,9.55
2022-08-14T22:20:53.733Z,9.07
2022-08-14T22:23:26.461Z,8.48
2022-08-14T22:25:55.354Z,8.18
2022-08-14T22:28:32.809Z,9.70
2022-08-14T22:31:10.068Z,9.00
2022-08-14T22:33:40.431Z,8.75
2022-08-14T22:36:33.639Z,9.43
2022-08-14T22:39:01.657Z,9.02
2022-08-14T22:41:32.541Z,8.52
2022-08-14T22:44:16.511Z,9.40
2022-08-14T22:46:45.278Z,8.88
2022-08-14T22:49:16.954Z,8.50
2022-08-14T22:52:02.782Z,9.68
2022-08-14T22:54:54.451Z,9.07
2022-08-14T22:57:22.531Z,9.35
2022-08-14T22:59:50.118Z,9.75
2022-08-14T23:02:30.214Z,9.48
2022-08-14T23:04:59.864Z,9.52
2022-08-14T23:08:58.197Z,8.75
2022-08-14T23:10:33.894Z,8.73
2022-08-14T23:13:04.884Z,8.10
2022-08-14T23:15:33.519Z,8.60
2022-08-14T23:18:00.798Z,8.70
2022-08-14T23:20:31.805Z,8.02
2022-08-14T23:23:01.204Z,8.25
2022-08-14T23:25:56.922Z,8.30
2022-08-14T23:28:34.218Z,8.43
2022-08-14T23:31:11.749Z,8.50
2022-08-14T23:33:46.031Z,7.95
2022-08-14T23:36:31.657Z,8.15
2022-08-14T23:39:00.194Z,7.70
2022-08-14T23:41:26.768Z,9.10
2022-08-14T23:44:15.349Z,8.90
2022-08-14T23:46:43.400Z,9.65
2022-08-14T23:49:12.576Z,8.95
2022-08-14T23:51:39.240Z,8.32
2022-08-14T23:54:48.073Z,8.43
2022-08-14T23:57:02.668Z,9.45
2022-08-14T23:59:30.726Z,8.65
